Time;durP1;ratioP1;P1;durP2;ratioP2;P2;SDS_P1;SDS_P2;PMS_P1;PMS_P2;Temp;Humidity;BMP_temperature;BMP_pressure;BME280_temperature;BME280_humidity;BME280_pressure;Samples;Min_cycle;Max_cycle;Signal;HPM_P1;HPM_P2
2022/07/05 00:01:24;;;;;;;21.48;19.98;;;;;;;-141.02;100.00;55844.97;5091967;28;20201;-74
2022/07/05 00:03:51;;;;;;;22.63;21.05;;;;;;;-141.02;100.00;55844.97;5091965;28;20711;-75
2022/07/05 00:06:19;;;;;;;21.35;19.85;;;;;;;-141.02;100.00;55844.97;5092227;28;20277;-74
2022/07/05 00:08:47;;;;;;;22.05;20.45;;;;;;;-141.02;100.00;55844.97;5092115;28;20282;-74
2022/07/05 00:11:14;;;;;;;24.77;23.08;;;;;;;-141.02;100.00;55844.97;5092176;28;20618;-75
2022/07/05 00:13:40;;;;;;;22.60;21.00;;;;;;;-141.02;100.00;55844.97;5091864;28;20659;-75
2022/07/05 00:16:08;;;;;;;22.40;20.80;;;;;;;-141.02;100.00;55844.97;5091853;28;20694;-74
2022/07/05 00:18:35;;;;;;;22.48;20.88;;;;;;;-141.02;100.00;55844.97;5091829;28;20198;-77
2022/07/05 00:21:02;;;;;;;22.80;21.20;;;;;;;-141.02;100.00;55844.97;5092697;28;20198;-75
2022/07/05 00:23:30;;;;;;;23.10;21.50;;;;;;;-141.02;100.00;55844.97;5091695;28;20757;-73
2022/07/05 00:25:57;;;;;;;22.25;20.65;;;;;;;-141.02;100.00;55844.97;5092757;28;20232;-75
2022/07/05 00:28:24;;;;;;;23.40;21.70;;;;;;;-141.02;100.00;55844.97;5095549;28;20218;-73
2022/07/05 00:30:51;;;;;;;21.45;19.95;;;;;;;-141.02;100.00;55844.97;5095909;28;20561;-75
2022/07/05 00:33:18;;;;;;;21.38;19.88;;;;;;;-141.02;100.00;55844.97;5095899;28;20228;-74
2022/07/05 00:35:45;;;;;;;22.05;20.55;;;;;;;-141.02;100.00;55844.97;5095810;28;20278;-75
2022/07/05 00:38:13;;;;;;;21.98;20.38;;;;;;;-141.02;100.00;55844.97;5095789;28;20198;-74
2022/07/05 00:40:43;;;;;;;22.23;20.73;;;;;;;-141.02;100.00;55844.97;5095742;28;20221;-75
2022/07/05 00:43:09;;;;;;;21.58;20.08;;;;;;;-141.02;100.00;55844.97;5095383;28;20675;-78
2022/07/05 00:45:37;;;;;;;22.52;21.02;;;;;;;-141.02;100.00;55844.97;5095636;28;20221;-75
2022/07/05 00:48:04;;;;;;;23.45;21.85;;;;;;;-141.02;100.00;55844.97;5095568;28;20189;-74
2022/07/05 00:50:32;;;;;;;22.58;20.98;;;;;;;-141.02;100.00;55844.97;5095269;28;20197;-75
2022/07/05 00:53:00;;;;;;;21.52;20.02;;;;;;;-141.02;100.00;55844.97;5095196;28;20280;-75
2022/07/05 00:55:27;;;;;;;21.90;20.40;;;;;;;-141.02;100.00;55844.97;5094982;28;20758;-74
2022/07/05 00:57:56;;;;;;;22.08;20.50;;;;;;;-141.02;100.00;55844.97;5095116;28;20247;-73
2022/07/05 01:00:23;;;;;;;21.85;20.35;;;;;;;-141.02;100.00;55844.97;5095078;28;20229;-75
2022/07/05 01:02:50;;;;;;;21.77;20.27;;;;;;;-141.02;100.00;55844.97;5095065;28;20259;-73
2022/07/05 01:05:18;;;;;;;21.38;19.88;;;;;;;-141.02;100.00;55844.97;5095281;28;20248;-74
2022/07/05 01:07:45;;;;;;;21.60;20.10;;;;;;;-141.02;100.00;55844.97;5095273;28;20262;-74
2022/07/05 01:10:12;;;;;;;22.00;20.50;;;;;;;-141.02;100.00;55844.97;5094786;28;20316;-74
2022/07/05 01:12:40;;;;;;;22.02;20.52;;;;;;;-141.02;100.00;55844.97;5094836;28;20201;-75
2022/07/05 01:15:10;;;;;;;21.98;20.48;;;;;;;-141.02;100.00;55844.97;5095017;28;20205;-75
2022/07/05 01:17:37;;;;;;;21.80;20.30;;;;;;;-141.02;100.00;55844.97;5094766;28;20197;-76
2022/07/05 01:20:07;;;;;;;22.10;20.60;;;;;;;-141.02;100.00;55844.97;5094669;28;20258;-75
2022/07/05 01:22:53;;;;;;;21.88;20.38;;;;;;;-141.02;100.00;55844.97;5094970;28;20213;-76
2022/07/05 01:25:21;;;;;;;21.30;19.80;;;;;;;-141.02;100.00;55844.97;5094877;28;20189;-75
2022/07/05 01:27:49;;;;;;;21.88;20.35;;;;;;;-141.02;100.00;55844.97;5094562;28;20236;-75
2022/07/05 01:30:17;;;;;;;21.52;20.02;;;;;;;-141.02;100.00;55844.97;5095215;28;20232;-76
2022/07/05 01:32:44;;;;;;;21.55;20.05;;;;;;;-141.02;100.00;55844.97;5094443;28;20578;-74
2022/07/05 01:35:12;;;;;;;21.85;20.35;;;;;;;-141.02;100.00;55844.97;5094420;28;20248;-76
2022/07/05 01:37:41;;;;;;;20.92;19.52;;;;;;;-141.02;100.00;55844.97;5093964;28;20190;-75
2022/07/05 01:40:09;;;;;;;21.60;20.10;;;;;;;-141.02;100.00;55844.97;5094311;28;20281;-75
2022/07/05 01:42:36;;;;;;;21.00;19.60;;;;;;;-141.02;100.00;55844.97;5094223;28;20285;-75
2022/07/05 01:45:04;;;;;;;21.52;20.02;;;;;;;-141.02;100.00;55844.97;5094501;28;20277;-76
2022/07/05 01:47:33;;;;;;;21.77;20.27;;;;;;;-141.02;100.00;55844.97;5094130;28;20660;-75
2022/07/05 01:50:01;;;;;;;22.45;20.95;;;;;;;-141.02;100.00;55844.97;5093989;28;20265;-74
2022/07/05 01:52:31;;;;;;;22.80;21.20;;;;;;;-141.02;100.00;55844.97;5094399;28;20270;-75
2022/07/05 01:55:00;;;;;;;23.70;22.10;;;;;;;-141.02;100.00;55844.97;5093930;28;20229;-75
2022/07/05 01:57:27;;;;;;;23.45;21.85;;;;;;;-141.02;100.00;55844.97;5094577;28;20205;-74
2022/07/05 01:59:54;;;;;;;21.67;20.17;;;;;;;-141.02;100.00;55844.97;5094199;28;20229;-75
2022/07/05 02:02:22;;;;;;;21.67;20.17;;;;;;;-141.02;100.00;55844.97;5094147;28;20223;-76
2022/07/05 02:04:49;;;;;;;21.85;20.35;;;;;;;-141.02;100.00;55844.97;5094098;28;20267;-75
2022/07/05 02:07:16;;;;;;;21.92;20.42;;;;;;;-141.02;100.00;55844.97;5094075;28;20198;-75
2022/07/05 02:09:43;;;;;;;22.00;20.50;;;;;;;-141.02;100.00;55844.97;5093676;28;20229;-75
2022/07/05 02:12:12;;;;;;;21.65;20.15;;;;;;;-141.02;100.00;55844.97;5093641;28;20204;-75
2022/07/05 02:14:39;;;;;;;21.75;20.25;;;;;;;-141.02;100.00;55844.97;5093957;28;20648;-75
2022/07/05 02:17:06;;;;;;;21.30;19.80;;;;;;;-141.02;100.00;55844.97;5093584;28;20281;-75
2022/07/05 02:19:33;;;;;;;21.48;19.98;;;;;;;-141.02;100.00;55844.97;5093830;28;20251;-76
2022/07/05 02:22:00;;;;;;;21.05;19.65;;;;;;;-141.02;100.00;55844.97;5093500;28;20194;-76
2022/07/05 02:24:27;;;;;;;21.10;19.70;;;;;;;-141.02;100.00;55844.97;5093772;28;20190;-76
2022/07/05 02:26:54;;;;;;;20.70;19.30;;;;;;;-141.02;100.00;55844.97;5093737;28;20190;-76
2022/07/05 02:29:22;;;;;;;20.80;19.40;;;;;;;-141.02;100.00;55844.97;5093611;28;20225;-76
2022/07/05 02:31:49;;;;;;;20.55;19.15;;;;;;;-141.02;100.00;55844.97;5093300;28;20645;-75
2022/07/05 02:34:17;;;;;;;20.73;19.33;;;;;;;-141.02;100.00;55844.97;5093315;28;20193;-75
2022/07/05 02:36:44;;;;;;;20.40;19.00;;;;;;;-141.02;100.00;55844.97;5093159;28;20223;-75
2022/07/05 02:39:11;;;;;;;21.00;19.60;;;;;;;-141.02;100.00;55844.97;5093491;28;20670;-75
2022/07/05 02:41:37;;;;;;;20.08;18.77;;;;;;;-141.02;100.00;55844.97;5093111;28;20281;-75
2022/07/05 02:44:05;;;;;;;19.90;18.60;;;;;;;-141.02;100.00;55844.97;5093124;28;20675;-75
2022/07/05 02:46:33;;;;;;;20.75;19.35;;;;;;;-141.02;100.00;55844.97;5093360;28;20202;-75
2022/07/05 02:49:00;;;;;;;19.95;18.65;;;;;;;-141.02;100.00;55844.97;5092194;28;20318;-75
2022/07/05 02:51:27;;;;;;;20.10;18.80;;;;;;;-141.02;100.00;55844.97;5092904;28;20285;-75
2022/07/05 02:53:54;;;;;;;20.52;19.23;;;;;;;-141.02;100.00;55844.97;5092947;28;20280;-75
2022/07/05 02:56:21;;;;;;;19.98;18.67;;;;;;;-141.02;100.00;55844.97;5093256;28;20268;-74
2022/07/05 02:58:48;;;;;;;21.08;19.67;;;;;;;-141.02;100.00;55844.97;5093078;28;20232;-75
2022/07/05 03:01:15;;;;;;;19.92;18.60;;;;;;;-141.02;100.00;55844.97;5092771;28;20229;-75
2022/07/05 03:03:44;;;;;;;20.13;18.83;;;;;;;-141.02;100.00;55844.97;5092998;28;20194;-75
2022/07/05 03:06:11;;;;;;;20.33;19.02;;;;;;;-141.02;100.00;55844.97;5092668;28;20680;-75
2022/07/05 03:08:38;;;;;;;19.85;18.55;;;;;;;-141.02;100.00;55844.97;5092900;28;20647;-75
2022/07/05 03:11:05;;;;;;;20.00;18.70;;;;;;;-141.02;100.00;55844.97;5092857;28;20281;-75
2022/07/05 03:13:32;;;;;;;19.70;18.40;;;;;;;-141.02;100.00;55844.97;5092890;28;20225;-75
2022/07/05 03:15:59;;;;;;;19.88;18.58;;;;;;;-141.02;100.00;55844.97;5092566;28;20255;-75
2022/07/05 03:18:25;;;;;;;19.70;18.40;;;;;;;-141.02;100.00;55844.97;5092742;28;20281;-75
2022/07/05 03:20:54;;;;;;;19.77;18.48;;;;;;;-141.02;100.00;55844.97;5092763;28;20237;-75
2022/07/05 03:23:21;;;;;;;19.33;18.13;;;;;;;-141.02;100.00;55844.97;5092368;28;20682;-75
2022/07/05 03:25:48;;;;;;;19.30;18.10;;;;;;;-141.02;100.00;55844.97;5092687;28;20190;-75
2022/07/05 03:28:15;;;;;;;19.67;18.38;;;;;;;-141.02;100.00;55844.97;5092662;28;20276;-75
2022/07/05 03:30:42;;;;;;;19.58;18.30;;;;;;;-141.02;100.00;55844.97;5092289;28;20671;-75
2022/07/05 03:33:09;;;;;;;19.15;17.95;;;;;;;-141.02;100.00;55844.97;5092293;28;20280;-75
2022/07/05 03:35:36;;;;;;;19.05;17.85;;;;;;;-141.02;100.00;55844.97;5092540;28;20190;-75
2022/07/05 03:38:04;;;;;;;19.25;18.05;;;;;;;-141.02;100.00;55844.97;5092478;28;20560;-75
2022/07/05 03:40:31;;;;;;;18.85;17.65;;;;;;;-141.02;100.00;55844.97;5092140;28;20668;-74
2022/07/05 03:42:58;;;;;;;19.88;18.67;;;;;;;-141.02;100.00;55844.97;5092461;28;20651;-75
2022/07/05 03:45:26;;;;;;;19.67;18.38;;;;;;;-141.02;100.00;55844.97;5092155;28;20198;-75
2022/07/05 03:47:53;;;;;;;19.75;18.50;;;;;;;-141.02;100.00;55844.97;5092073;28;20201;-75
2022/07/05 03:50:20;;;;;;;19.80;18.50;;;;;;;-141.02;100.00;55844.97;5091994;28;20261;-75
2022/07/05 03:52:47;;;;;;;19.60;18.30;;;;;;;-141.02;100.00;55844.97;5091989;28;20229;-75
2022/07/05 03:55:16;;;;;;;19.45;18.15;;;;;;;-141.02;100.00;55844.97;5091897;28;20233;-75
2022/07/05 03:57:43;;;;;;;19.75;18.45;;;;;;;-141.02;100.00;55844.97;5092305;28;20254;-75
2022/07/05 04:00:11;;;;;;;19.70;18.40;;;;;;;-141.02;100.00;55844.97;5093341;28;20189;-75
2022/07/05 04:02:38;;;;;;;20.25;18.85;;;;;;;-141.02;100.00;55844.97;5096179;28;20288;-75
2022/07/05 04:05:06;;;;;;;19.70;18.40;;;;;;;-141.02;100.00;55844.97;5096081;28;20284;-75
2022/07/05 04:07:33;;;;;;;19.98;18.67;;;;;;;-141.02;100.00;55844.97;5096408;28;20189;-75
2022/07/05 04:10:00;;;;;;;19.70;18.40;;;;;;;-141.02;100.00;55844.97;5095872;28;20712;-75
2022/07/05 04:12:29;;;;;;;19.70;18.40;;;;;;;-141.02;100.00;55844.97;5095983;28;20197;-75
2022/07/05 04:14:56;;;;;;;19.85;18.45;;;;;;;-141.02;100.00;55844.97;5095997;28;20189;-75
2022/07/05 04:17:23;;;;;;;19.58;18.27;;;;;;;-141.02;100.00;55844.97;5096089;28;20213;-75
2022/07/05 04:19:50;;;;;;;20.30;19.00;;;;;;;-141.02;100.00;55844.97;5096182;28;20255;-75
2022/07/05 04:22:17;;;;;;;20.50;19.10;;;;;;;-141.02;100.00;55844.97;5096145;28;20198;-75
2022/07/05 04:27:44;;;;;;;20.48;19.08;;;;;;;-141.02;100.00;55844.97;5033609;28;20311;-75
2022/07/05 04:30:12;;;;;;;20.20;18.90;;;;;;;-141.02;100.00;55844.97;5033404;28;20230;-75
2022/07/05 04:32:39;;;;;;;20.02;18.73;;;;;;;-141.02;100.00;55844.97;5033475;28;20238;-75
2022/07/05 04:35:06;;;;;;;19.88;18.58;;;;;;;-141.02;100.00;55844.97;5033312;28;20195;-75
2022/07/05 04:37:33;;;;;;;20.48;19.17;;;;;;;-141.02;100.00;55844.97;5033268;28;20234;-75
2022/07/05 04:40:01;;;;;;;20.38;19.08;;;;;;;-141.02;100.00;55844.97;5033461;28;20200;-75
2022/07/05 04:42:27;;;;;;;20.35;19.05;;;;;;;-141.02;100.00;55844.97;5033237;28;20238;-75
2022/07/05 04:44:56;;;;;;;20.33;18.92;;;;;;;-141.02;100.00;55844.97;5033159;28;20196;-75
2022/07/05 04:47:23;;;;;;;20.08;18.77;;;;;;;-141.02;100.00;55844.97;5033128;28;20287;-75
2022/07/05 04:49:50;;;;;;;19.63;18.35;;;;;;;-141.02;100.00;55844.97;5032966;28;20697;-75
2022/07/05 04:52:17;;;;;;;19.90;18.52;;;;;;;-141.02;100.00;55844.97;5033147;28;20334;-75
2022/07/05 04:54:44;;;;;;;19.85;18.55;;;;;;;-141.02;100.00;55844.97;5032722;28;20251;-75
2022/07/05 04:57:11;;;;;;;20.33;18.92;;;;;;;-141.02;100.00;55844.97;5032926;28;20219;-75
2022/07/05 04:59:38;;;;;;;20.52;19.13;;;;;;;-141.02;100.00;55844.97;5089543;28;20726;-75
2022/07/05 05:02:06;;;;;;;20.38;18.98;;;;;;;-141.02;100.00;55844.97;5094999;28;20261;-75
2022/07/05 05:04:34;;;;;;;20.60;19.20;;;;;;;-141.02;100.00;55844.97;5095007;28;20224;-75
2022/07/05 05:07:01;;;;;;;22.70;21.20;;;;;;;-141.02;100.00;55844.97;5094965;28;20667;-75
2022/07/05 05:09:28;;;;;;;22.27;20.77;;;;;;;-141.02;100.00;55844.97;5095195;28;20574;-76
2022/07/05 05:11:55;;;;;;;21.73;20.23;;;;;;;-141.02;100.00;55844.97;5094137;28;20236;-75
2022/07/05 05:14:22;;;;;;;23.58;21.98;;;;;;;-141.02;100.00;55844.97;5094822;28;20571;-76
2022/07/05 05:16:49;;;;;;;23.33;21.83;;;;;;;-141.02;100.00;55844.97;5095119;28;20255;-76
2022/07/05 05:19:17;;;;;;;22.98;21.48;;;;;;;-141.02;100.00;55844.97;5094702;28;20229;-76
2022/07/05 05:21:44;;;;;;;21.13;19.73;;;;;;;-141.02;100.00;55844.97;5094968;28;20259;-76
2022/07/05 05:24:11;;;;;;;20.75;19.35;;;;;;;-141.02;100.00;55844.97;5094626;28;20233;-76
2022/07/05 05:26:38;;;;;;;20.10;18.70;;;;;;;-141.02;100.00;55844.97;5094890;28;20250;-76
2022/07/05 05:29:05;;;;;;;20.60;19.20;;;;;;;-141.02;100.00;55844.97;5094543;28;20233;-76
2022/07/05 05:31:32;;;;;;;20.35;19.05;;;;;;;-141.02;100.00;55844.97;5094399;28;20268;-75
2022/07/05 05:33:59;;;;;;;20.23;18.92;;;;;;;-141.02;100.00;55844.97;5094468;28;20190;-75
2022/07/05 05:36:28;;;;;;;20.45;19.05;;;;;;;-141.02;100.00;55844.97;5094373;28;20645;-76
2022/07/05 05:38:55;;;;;;;20.00;18.70;;;;;;;-141.02;100.00;55844.97;5094372;28;20198;-76
2022/07/05 05:41:22;;;;;;;20.55;19.15;;;;;;;-141.02;100.00;55844.97;5094348;28;20198;-76
2022/07/05 05:43:49;;;;;;;20.50;19.10;;;;;;;-141.02;100.00;55844.97;5094504;28;20202;-75
2022/07/05 05:46:16;;;;;;;20.17;18.77;;;;;;;-141.02;100.00;55844.97;5094522;28;20247;-75
2022/07/05 05:48:43;;;;;;;20.42;19.02;;;;;;;-141.02;100.00;55844.97;5094118;28;20664;-76
2022/07/05 05:51:10;;;;;;;20.40;19.08;;;;;;;-141.02;100.00;55844.97;5094374;28;20247;-76
2022/07/05 05:53:38;;;;;;;20.77;19.27;;;;;;;-141.02;100.00;55844.97;5093915;28;20196;-76
2022/07/05 05:56:06;;;;;;;20.45;19.05;;;;;;;-141.02;100.00;55844.97;5094299;28;20237;-75
2022/07/05 05:58:33;;;;;;;20.27;18.88;;;;;;;-141.02;100.00;55844.97;5094299;28;20266;-75
2022/07/05 06:00:59;;;;;;;20.60;19.20;;;;;;;-141.02;100.00;55844.97;5093919;28;20190;-75
2022/07/05 06:03:27;;;;;;;20.90;19.50;;;;;;;-141.02;100.00;55844.97;5093876;28;20197;-76
2022/07/05 06:05:54;;;;;;;20.40;19.00;;;;;;;-141.02;100.00;55844.97;5094646;28;20221;-76
2022/07/05 06:08:22;;;;;;;20.20;18.80;;;;;;;-141.02;100.00;55844.97;5093806;28;20200;-75
2022/07/05 06:10:50;;;;;;;20.98;19.55;;;;;;;-141.02;100.00;55844.97;5093952;28;20255;-76
2022/07/05 06:13:17;;;;;;;20.40;19.00;;;;;;;-141.02;100.00;55844.97;5093982;28;20197;-75
2022/07/05 06:15:45;;;;;;;20.23;18.83;;;;;;;-141.02;100.00;55844.97;5094004;28;20267;-76
2022/07/05 06:18:12;;;;;;;20.77;19.38;;;;;;;-141.02;100.00;55844.97;5093606;28;20251;-76
2022/07/05 06:20:40;;;;;;;20.35;18.95;;;;;;;-141.02;100.00;55844.97;5093865;28;20256;-75
2022/07/05 06:23:08;;;;;;;20.77;19.38;;;;;;;-141.02;100.00;55844.97;5093231;28;20198;-76
2022/07/05 06:25:36;;;;;;;20.25;18.85;;;;;;;-141.02;100.00;55844.97;5093023;28;20263;-76
2022/07/05 06:28:06;;;;;;;20.70;19.30;;;;;;;-141.02;100.00;55844.97;5093390;28;20193;-75
2022/07/05 06:30:35;;;;;;;20.15;18.75;;;;;;;-141.02;100.00;55844.97;5093658;28;20214;-76
2022/07/05 06:33:03;;;;;;;20.20;18.80;;;;;;;-141.02;100.00;55844.97;5093658;28;20596;-75
2022/07/05 06:35:31;;;;;;;20.70;19.20;;;;;;;-141.02;100.00;55844.97;5093331;28;20201;-76
2022/07/05 06:38:00;;;;;;;20.00;18.60;;;;;;;-141.02;100.00;55844.97;5093225;28;20679;-77
2022/07/05 06:40:28;;;;;;;20.45;19.00;;;;;;;-141.02;100.00;55844.97;5093137;28;20244;-76
2022/07/05 06:42:57;;;;;;;20.23;18.83;;;;;;;-141.02;100.00;55844.97;5093118;28;20198;-76
2022/07/05 06:45:26;;;;;;;20.50;19.05;;;;;;;-141.02;100.00;55844.97;5093065;28;20234;-74
2022/07/05 06:47:57;;;;;;;20.67;19.27;;;;;;;-141.02;100.00;55844.97;5092994;28;20267;-75
2022/07/05 06:50:24;;;;;;;20.73;19.33;;;;;;;-141.02;100.00;55844.97;5092915;28;20226;-76
2022/07/05 06:52:51;;;;;;;20.65;19.25;;;;;;;-141.02;100.00;55844.97;5093201;28;20197;-77
2022/07/05 06:55:18;;;;;;;20.48;19.08;;;;;;;-141.02;100.00;55844.97;5092706;28;20316;-76
2022/07/05 06:57:45;;;;;;;20.33;18.92;;;;;;;-141.02;100.00;55844.97;5092831;28;20201;-75
2022/07/05 07:00:13;;;;;;;20.35;19.05;;;;;;;-141.02;100.00;55844.97;5092800;28;20250;-75
2022/07/05 07:02:42;;;;;;;20.23;18.83;;;;;;;-141.02;100.00;55844.97;5092794;28;20233;-76
2022/07/05 07:05:10;;;;;;;20.05;18.65;;;;;;;-141.02;100.00;55844.97;5092725;28;20201;-73
2022/07/05 07:10:21;;;;;;;20.35;18.95;;;;;;;-141.02;100.00;55844.97;5092747;28;20347;-75
2022/07/05 07:12:48;;;;;;;20.30;18.90;;;;;;;-141.02;100.00;55844.97;5092628;28;20233;-76
2022/07/05 07:15:15;;;;;;;20.42;19.02;;;;;;;-141.02;100.00;55844.97;5092816;28;20233;-76
2022/07/05 07:17:44;;;;;;;20.67;19.27;;;;;;;-141.02;100.00;55844.97;5092614;28;20711;-76
2022/07/05 07:20:12;;;;;;;21.02;19.60;;;;;;;-141.02;100.00;55844.97;5092763;28;20613;-75
2022/07/05 07:22:39;;;;;;;20.45;19.05;;;;;;;-141.02;100.00;55844.97;5092482;28;20229;-75
2022/07/05 07:25:08;;;;;;;20.52;19.13;;;;;;;-141.02;100.00;55844.97;5092698;28;20250;-75
2022/07/05 07:27:43;;;;;;;20.80;19.40;;;;;;;-141.02;100.00;55844.97;5092423;28;20198;-75
2022/07/05 07:30:12;;;;;;;20.50;19.10;;;;;;;-141.02;100.00;55844.97;5092274;28;20185;-75
2022/07/05 07:32:39;;;;;;;21.05;19.65;;;;;;;-141.02;100.00;55844.97;5092600;28;20194;-75
2022/07/05 07:35:09;;;;;;;20.33;18.92;;;;;;;-141.02;100.00;55844.97;5091934;28;20687;-75
2022/07/05 07:37:36;;;;;;;19.67;18.27;;;;;;;-141.02;100.00;55844.97;5092239;28;20258;-75
2022/07/05 07:40:03;;;;;;;20.35;18.95;;;;;;;-141.02;100.00;55844.97;5092234;28;20233;-75
2022/07/05 07:42:31;;;;;;;20.40;19.00;;;;;;;-141.02;100.00;55844.97;5092157;28;20193;-75
2022/07/05 07:44:58;;;;;;;20.23;18.83;;;;;;;-141.02;100.00;55844.97;5092103;28;20663;-76
2022/07/05 07:47:26;;;;;;;20.20;18.80;;;;;;;-141.02;100.00;55844.97;5092145;28;20201;-73
2022/07/05 07:49:53;;;;;;;20.45;19.05;;;;;;;-141.02;100.00;55844.97;5092067;28;20653;-77
2022/07/05 07:52:21;;;;;;;20.20;18.80;;;;;;;-141.02;100.00;55844.97;5091992;28;20282;-75
2022/07/05 07:54:48;;;;;;;20.38;18.98;;;;;;;-141.02;100.00;55844.97;5092007;28;20237;-76
2022/07/05 07:57:16;;;;;;;20.20;18.80;;;;;;;-141.02;100.00;55844.97;5092329;28;20251;-73
2022/07/05 07:59:43;;;;;;;20.90;19.50;;;;;;;-141.02;100.00;55844.97;5092361;28;20190;-76
2022/07/05 08:02:10;;;;;;;20.38;19.00;;;;;;;-141.02;100.00;55844.97;5092024;28;20232;-75
2022/07/05 08:04:37;;;;;;;20.48;19.08;;;;;;;-141.02;100.00;55844.97;5092275;28;20724;-76
2022/07/05 08:07:05;;;;;;;20.23;18.83;;;;;;;-141.02;100.00;55844.97;5092208;28;20280;-75
2022/07/05 08:09:33;;;;;;;20.45;19.05;;;;;;;-141.02;100.00;55844.97;5091956;28;20197;-75
2022/07/05 08:12:00;;;;;;;20.50;19.10;;;;;;;-141.02;100.00;55844.97;5092069;28;20274;-76
2022/07/05 08:14:27;;;;;;;20.65;19.25;;;;;;;-141.02;100.00;55844.97;5091892;28;20718;-76
2022/07/05 08:16:54;;;;;;;20.23;18.83;;;;;;;-141.02;100.00;55844.97;5091888;28;20197;-77
2022/07/05 08:22:08;;;;;;;20.40;19.00;;;;;;;-141.02;100.00;55844.97;5091936;28;20259;-75
2022/07/05 08:24:36;;;;;;;20.20;18.80;;;;;;;-141.02;100.00;55844.97;5091760;28;20674;-78
2022/07/05 08:27:04;;;;;;;19.98;18.58;;;;;;;-141.02;100.00;55844.97;5091789;28;20200;-75
2022/07/05 08:29:31;;;;;;;21.13;19.63;;;;;;;-141.02;100.00;55844.97;5092018;28;20190;-77
2022/07/05 08:31:58;;;;;;;20.40;19.00;;;;;;;-141.02;100.00;55844.97;5091664;28;20225;-76
2022/07/05 08:34:25;;;;;;;20.10;18.70;;;;;;;-141.02;100.00;55844.97;5091958;28;20243;-77
2022/07/05 08:36:52;;;;;;;20.33;18.92;;;;;;;-141.02;100.00;55844.97;5091671;28;20193;-76
2022/07/05 08:39:19;;;;;;;21.33;19.92;;;;;;;-141.02;100.00;55844.97;5091661;28;20194;-76
2022/07/05 08:41:52;;;;;;;21.25;19.85;;;;;;;-141.02;100.00;55844.97;5091583;28;20190;-77
2022/07/05 08:44:20;;;;;;;21.15;19.75;;;;;;;-141.02;100.00;55844.97;5091966;28;20183;-78
2022/07/05 08:46:51;;;;;;;21.20;19.80;;;;;;;-141.02;100.00;55844.97;5092217;28;20276;-77
2022/07/05 08:49:22;;;;;;;20.90;19.50;;;;;;;-141.02;100.00;55844.97;5095695;28;20186;-76
2022/07/05 08:51:50;;;;;;;21.10;19.70;;;;;;;-141.02;100.00;55844.97;5095541;28;20249;-76
2022/07/05 08:54:17;;;;;;;21.02;19.63;;;;;;;-141.02;100.00;55844.97;5095231;28;20229;-76
2022/07/05 08:56:45;;;;;;;21.13;19.73;;;;;;;-141.02;100.00;55844.97;5095490;28;20209;-75
2022/07/05 08:59:14;;;;;;;21.40;20.00;;;;;;;-141.02;100.00;55844.97;5095164;28;20664;-75
2022/07/05 09:01:41;;;;;;;24.33;22.55;;;;;;;-141.02;100.00;55844.97;5095972;28;20216;-74
2022/07/05 09:04:10;;;;;;;21.10;19.70;;;;;;;-141.02;100.00;55844.97;5095315;28;20201;-75
2022/07/05 09:06:40;;;;;;;21.13;19.73;;;;;;;-141.02;100.00;55844.97;5094995;28;20584;-77
2022/07/05 09:09:08;;;;;;;21.08;19.67;;;;;;;-141.02;100.00;55844.97;5094957;28;20668;-76
2022/07/05 09:11:38;;;;;;;21.15;19.75;;;;;;;-141.02;100.00;55844.97;5095150;28;20260;-76
2022/07/05 09:14:07;;;;;;;20.60;19.20;;;;;;;-141.02;100.00;55844.97;5095192;28;20182;-77
2022/07/05 09:16:36;;;;;;;20.73;19.33;;;;;;;-141.02;100.00;55844.97;5095141;28;20225;-76
2022/07/05 09:19:07;;;;;;;20.40;19.00;;;;;;;-141.02;100.00;55844.97;5094744;28;20551;-76
2022/07/05 09:21:35;;;;;;;20.42;19.02;;;;;;;-141.02;100.00;55844.97;5094693;28;20620;-76
2022/07/05 09:24:04;;;;;;;20.42;19.02;;;;;;;-141.02;100.00;55844.97;5095006;28;20653;-76
2022/07/05 09:26:36;;;;;;;20.30;18.90;;;;;;;-141.02;100.00;55844.97;5094639;28;20209;-76
2022/07/05 09:29:04;;;;;;;20.83;19.42;;;;;;;-141.02;100.00;55844.97;5094577;28;20280;-78
2022/07/05 09:31:33;;;;;;;20.55;19.15;;;;;;;-141.02;100.00;55844.97;5094753;28;20593;-76
2022/07/05 09:34:08;;;;;;;20.40;19.00;;;;;;;-141.02;100.00;55844.97;5094793;28;20229;-76
2022/07/05 09:36:49;;;;;;;20.60;19.20;;;;;;;-141.02;100.00;55844.97;5094388;28;20280;-77
2022/07/05 09:39:16;;;;;;;20.50;19.10;;;;;;;-141.02;100.00;55844.97;5094744;28;20193;-76
2022/07/05 09:41:43;;;;;;;20.27;18.88;;;;;;;-141.02;100.00;55844.97;5094336;28;20229;-76
2022/07/05 09:44:11;;;;;;;20.35;18.95;;;;;;;-141.02;100.00;55844.97;5094598;28;20235;-75
2022/07/05 09:46:38;;;;;;;20.55;19.15;;;;;;;-141.02;100.00;55844.97;5094544;28;20226;-76
2022/07/05 09:49:07;;;;;;;20.48;19.08;;;;;;;-141.02;100.00;55844.97;5094223;28;20198;-76
2022/07/05 09:51:49;;;;;;;20.70;19.30;;;;;;;-141.02;100.00;55844.97;5094214;28;20232;-76
2022/07/05 09:54:16;;;;;;;20.92;19.52;;;;;;;-141.02;100.00;55844.97;5094604;28;20244;-76
2022/07/05 09:56:48;;;;;;;20.65;19.25;;;;;;;-141.02;100.00;55844.97;5094359;28;20194;-75
2022/07/05 09:59:21;;;;;;;20.27;18.88;;;;;;;-141.02;100.00;55844.97;5093768;28;20638;-77
2022/07/05 10:01:48;;;;;;;20.83;19.42;;;;;;;-141.02;100.00;55844.97;5093984;28;20247;-77
2022/07/05 10:04:17;;;;;;;20.70;19.30;;;;;;;-141.02;100.00;55844.97;5093908;28;20571;-76
2022/07/05 10:06:44;;;;;;;20.95;19.55;;;;;;;-141.02;100.00;55844.97;5094251;28;20631;-79
2022/07/05 10:09:12;;;;;;;20.20;18.80;;;;;;;-141.02;100.00;55844.97;5094078;28;20280;-78
2022/07/05 10:11:41;;;;;;;20.42;19.02;;;;;;;-141.02;100.00;55844.97;5093666;28;20229;-76
2022/07/05 10:14:13;;;;;;;21.10;19.70;;;;;;;-141.02;100.00;55844.97;5094000;28;20189;-76
2022/07/05 10:16:40;;;;;;;21.40;20.00;;;;;;;-141.02;100.00;55844.97;5093739;28;20190;-78
2022/07/05 10:19:14;;;;;;;20.55;19.15;;;;;;;-141.02;100.00;55844.97;5093889;28;20201;-74
2022/07/05 10:21:44;;;;;;;20.95;19.55;;;;;;;-141.02;100.00;55844.97;5093612;28;20196;-77
2022/07/05 10:24:12;;;;;;;20.88;19.48;;;;;;;-141.02;100.00;55844.97;5093836;28;20190;-76
2022/07/05 10:26:41;;;;;;;20.55;19.15;;;;;;;-141.02;100.00;55844.97;5093772;28;20233;-76
2022/07/05 10:29:10;;;;;;;20.77;19.38;;;;;;;-141.02;100.00;55844.97;5093717;28;20197;-77
2022/07/05 10:31:38;;;;;;;20.70;19.30;;;;;;;-141.02;100.00;55844.97;5093358;28;20735;-76
2022/07/05 10:34:08;;;;;;;20.55;19.15;;;;;;;-141.02;100.00;55844.97;5093347;28;20193;-77
2022/07/05 10:36:37;;;;;;;20.98;19.58;;;;;;;-141.02;100.00;55844.97;5093559;28;20196;-77
2022/07/05 10:39:07;;;;;;;21.33;19.92;;;;;;;-141.02;100.00;55844.97;5093243;28;20193;-77
2022/07/05 10:41:35;;;;;;;21.08;19.67;;;;;;;-141.02;100.00;55844.97;5093151;28;20236;-78
2022/07/05 10:44:02;;;;;;;21.05;19.65;;;;;;;-141.02;100.00;55844.97;5093148;28;20254;-76
2022/07/05 10:46:36;;;;;;;24.02;22.38;;;;;;;-141.02;100.00;55844.97;5093373;28;20225;-76
2022/07/05 10:49:17;;;;;;;20.77;19.38;;;;;;;-141.02;100.00;55844.97;5093062;28;20220;-76
2022/07/05 10:51:44;;;;;;;21.25;19.85;;;;;;;-141.02;100.00;55844.97;5092922;28;20209;-77
2022/07/05 10:54:13;;;;;;;20.55;19.15;;;;;;;-141.02;100.00;55844.97;5092792;28;20268;-77
2022/07/05 10:56:40;;;;;;;20.13;18.83;;;;;;;-141.02;100.00;55844.97;5092843;28;20194;-77
2022/07/05 10:59:11;;;;;;;20.75;19.33;;;;;;;-141.02;100.00;55844.97;5092889;28;20197;-77
2022/07/05 11:01:42;;;;;;;20.42;19.02;;;;;;;-141.02;100.00;55844.97;5093181;28;20265;-76
2022/07/05 11:04:38;;;;;;;21.05;19.65;;;;;;;-141.02;100.00;55844.97;5093082;28;20671;-79
2022/07/05 11:07:05;;;;;;;20.90;19.50;;;;;;;-141.02;100.00;55844.97;5092759;28;20186;-76